createdAt,value
2019-05-15T00:02:36.067Z,8.02
2019-05-15T00:07:39.678Z,7.92
2019-05-15T00:12:42.963Z,7.72
2019-05-15T00:17:48.602Z,7.78
2019-05-15T00:22:51.658Z,7.72
2019-05-15T00:27:55.248Z,7.56
2019-05-15T00:32:58.854Z,7.26
2019-05-15T00:38:02.148Z,7.51
2019-05-15T00:43:05.335Z,7.56
2019-05-15T00:48:09.130Z,7.59
2019-05-15T00:53:12.286Z,7.65
2019-05-15T00:58:15.617Z,7.66
2019-05-15T01:03:19.084Z,7.70
2019-05-15T01:08:22.318Z,7.67
2019-05-15T01:13:24.805Z,7.50
2019-05-15T01:18:29.213Z,7.50
2019-05-15T01:23:32.597Z,7.34
2019-05-15T01:28:35.655Z,7.40
2019-05-15T01:33:39.052Z,7.47
2019-05-15T01:38:42.863Z,7.32
2019-05-15T01:43:48.726Z,7.31
2019-05-15T01:48:51.259Z,7.13
2019-05-15T01:53:54.473Z,7.10
2019-05-15T01:58:58.075Z,7.06
2019-05-15T02:04:01.279Z,7.20
2019-05-15T02:09:08.299Z,7.00
2019-05-15T02:14:11.504Z,6.70
2019-05-15T02:19:14.063Z,6.79
2019-05-15T02:24:18.910Z,6.65
2019-05-15T02:29:25.108Z,6.52
2019-05-15T02:34:29.660Z,6.54
2019-05-15T02:39:31.059Z,6.52
2019-05-15T02:44:34.371Z,6.45
2019-05-15T02:49:39.589Z,6.56
2019-05-15T02:54:41.942Z,6.41
2019-05-15T02:59:44.820Z,6.27
2019-05-15T03:04:48.729Z,6.39
2019-05-15T03:09:52.045Z,6.35
2019-05-15T03:14:55.315Z,6.24
2019-05-15T03:19:59.059Z,6.31
2019-05-15T03:25:02.289Z,6.29
2019-05-15T03:30:05.174Z,6.37
2019-05-15T03:35:14.243Z,6.39
2019-05-15T03:40:13.837Z,6.28
2019-05-15T03:45:19.267Z,6.11
2019-05-15T03:50:22.133Z,6.13
2019-05-15T03:55:25.074Z,6.21
2019-05-15T04:00:30.122Z,6.35
2019-05-15T04:05:34.991Z,6.22
2019-05-15T04:10:39.975Z,6.15
2019-05-15T04:15:43.147Z,6.20
2019-05-15T04:20:49.181Z,6.40
2019-05-15T04:25:52.059Z,6.46
2019-05-15T04:30:54.978Z,6.52
2019-05-15T04:35:59.025Z,6.61
2019-05-15T04:41:01.795Z,6.72
2019-05-15T04:46:10.341Z,6.95
2019-05-15T04:51:13.332Z,6.91
2019-05-15T04:56:19.068Z,7.19
2019-05-15T05:01:21.455Z,7.41
2019-05-15T05:06:25.304Z,7.65
2019-05-15T05:11:29.255Z,7.83
2019-05-15T05:16:32.148Z,7.55
2019-05-15T05:21:35.052Z,8.00
2019-05-15T05:26:38.433Z,8.42
2019-05-15T05:31:41.724Z,8.93
2019-05-15T05:36:44.988Z,9.30
2019-05-15T05:41:48.785Z,9.57
2019-05-15T05:46:52.276Z,9.85
2019-05-15T05:51:55.432Z,10.08
2019-05-15T05:56:58.672Z,10.25
2019-05-15T06:02:01.601Z,10.47
2019-05-15T06:07:09.978Z,10.67
2019-05-15T06:12:09.490Z,10.81
2019-05-15T06:17:13.074Z,10.96
2019-05-15T06:22:18.642Z,11.11
2019-05-15T06:27:22.295Z,11.34
2019-05-15T06:32:28.738Z,11.48
2019-05-15T06:37:30.120Z,11.56
2019-05-15T06:42:33.386Z,11.78
2019-05-15T06:47:39.210Z,11.93
2019-05-15T06:52:42.017Z,12.09
2019-05-15T06:57:45.242Z,12.22
2019-05-15T07:02:48.660Z,12.41
2019-05-15T07:07:52.044Z,12.53
2019-05-15T07:12:55.312Z,12.73
2019-05-15T07:17:58.466Z,12.88
2019-05-15T07:23:01.816Z,13.08
2019-05-15T07:28:05.059Z,13.04
2019-05-15T07:33:08.777Z,13.20
2019-05-15T07:38:12.289Z,13.24
2019-05-15T07:43:17.953Z,13.38
2019-05-15T07:48:20.267Z,13.54
2019-05-15T07:53:23.424Z,13.76
2019-05-15T07:58:27.809Z,13.79
2019-05-15T08:03:33.307Z,14.08
2019-05-15T08:08:39.011Z,14.04
2019-05-15T08:13:41.690Z,14.05
2019-05-15T08:18:44.192Z,14.36
2019-05-15T08:23:48.470Z,14.37
2019-05-15T08:28:50.839Z,14.56
2019-05-15T08:33:54.217Z,14.55
2019-05-15T08:38:59.179Z,14.88
2019-05-15T08:44:02.497Z,14.79
2019-05-15T08:49:05.401Z,15.02
2019-05-15T08:54:08.901Z,15.20
2019-05-15T08:59:11.813Z,15.04
2019-05-15T09:04:27.799Z,15.20
2019-05-15T09:09:21.309Z,15.06
2019-05-15T09:14:24.612Z,15.24
2019-05-15T09:19:28.219Z,15.28
2019-05-15T09:24:30.951Z,15.19
2019-05-15T09:29:33.762Z,15.33
2019-05-15T09:34:47.939Z,15.54
2019-05-15T09:39:42.358Z,15.57
2019-05-15T09:44:45.612Z,15.41
2019-05-15T09:49:48.664Z,15.44
2019-05-15T09:54:52.017Z,15.38
2019-05-15T09:59:55.316Z,15.36
2019-05-15T10:05:06.525Z,15.61
2019-05-15T10:10:03.107Z,15.76
2019-05-15T10:15:11.191Z,15.83
2019-05-15T10:20:12.622Z,15.75
2019-05-15T10:25:15.408Z,15.73
2019-05-15T10:30:18.842Z,15.73
2019-05-15T10:35:28.064Z,16.04
2019-05-15T10:40:29.576Z,16.23
2019-05-15T10:45:31.782Z,16.37
2019-05-15T10:50:34.810Z,16.65
2019-05-15T10:55:39.507Z,16.72
2019-05-15T11:00:43.555Z,16.89
2019-05-15T11:05:48.928Z,17.16
2019-05-15T11:10:50.924Z,17.43
2019-05-15T11:15:54.195Z,17.65
2019-05-15T11:20:59.356Z,17.72
2019-05-15T11:26:01.893Z,17.75
2019-05-15T11:31:04.977Z,18.21
2019-05-15T11:36:08.542Z,18.47
2019-05-15T11:41:11.708Z,18.44
2019-05-15T11:46:15.200Z,18.95
2019-05-15T11:51:18.464Z,18.77
2019-05-15T11:56:21.624Z,18.85
2019-05-15T12:01:24.670Z,19.17
2019-05-15T12:06:29.204Z,19.12
2019-05-15T12:11:37.071Z,19.37
2019-05-15T12:16:39.910Z,19.45
2019-05-15T12:21:43.551Z,19.65
2019-05-15T12:26:48.927Z,19.56
2019-05-15T12:31:52.139Z,20.07
2019-05-15T12:36:58.081Z,20.51
2019-05-15T13:02:21.004Z,21.02
2019-05-15T13:07:23.862Z,20.60
2019-05-15T13:12:28.822Z,20.91
2019-05-15T13:17:32.108Z,21.06
2019-05-15T13:22:36.556Z,21.02
2019-05-15T13:27:40.692Z,21.32
2019-05-15T13:32:44.877Z,20.88
2019-05-15T13:37:49.453Z,21.22
2019-05-15T13:42:54.555Z,21.51
2019-05-15T13:47:58.078Z,22.30
2019-05-15T13:53:00.766Z,21.77
2019-05-15T13:58:04.085Z,21.91
2019-05-15T14:03:09.216Z,21.93
2019-05-15T14:08:12.440Z,22.17
2019-05-15T14:13:15.656Z,22.21
2019-05-15T14:18:19.667Z,22.19
2019-05-15T14:23:24.180Z,22.37
2019-05-15T14:28:28.393Z,22.94
2019-05-15T14:33:31.801Z,22.62
2019-05-15T14:38:34.996Z,22.98
2019-05-15T14:43:38.253Z,22.52
2019-05-15T14:48:41.387Z,21.85
2019-05-15T14:53:44.589Z,21.60
2019-05-15T14:58:48.024Z,22.58
2019-05-15T15:03:51.557Z,23.00
2019-05-15T15:08:54.942Z,23.09
2019-05-15T15:13:58.227Z,22.28
2019-05-15T15:19:01.056Z,21.58
2019-05-15T15:24:04.978Z,22.15
2019-05-15T15:29:08.627Z,22.23
2019-05-15T15:34:11.371Z,22.42
2019-05-15T15:39:14.885Z,21.02
2019-05-15T15:44:18.291Z,20.72
2019-05-15T15:49:22.233Z,21.28
2019-05-15T15:54:27.981Z,21.93
2019-05-15T15:59:30.120Z,22.34
2019-05-15T16:04:33.705Z,21.28
2019-05-15T16:09:38.769Z,22.64
2019-05-15T16:14:42.211Z,22.35
2019-05-15T16:19:45.307Z,22.37
2019-05-15T16:24:49.170Z,22.50
2019-05-15T16:29:52.667Z,21.93
2019-05-15T16:34:55.899Z,22.34
2019-05-15T16:40:00.037Z,23.09
2019-05-15T16:45:03.312Z,23.08
2019-05-15T16:50:07.075Z,22.70
2019-05-15T16:55:10.572Z,21.79
2019-05-15T17:00:14.584Z,21.99
2019-05-15T17:05:20.354Z,21.38
2019-05-15T17:10:23.298Z,21.34
2019-05-15T17:15:28.009Z,21.15
2019-05-15T17:20:31.531Z,21.17
2019-05-15T17:25:34.031Z,21.82
2019-05-15T17:30:38.266Z,20.06
2019-05-15T17:35:41.052Z,19.74
2019-05-15T17:40:43.964Z,19.56
2019-05-15T17:45:48.264Z,18.94
2019-05-15T17:50:52.696Z,18.30
2019-05-15T17:55:58.455Z,17.50
2019-05-15T18:01:01.240Z,17.21
2019-05-15T18:06:04.527Z,17.42
2019-05-15T18:11:09.056Z,17.01
2019-05-15T18:16:13.896Z,16.61
2019-05-15T18:21:20.086Z,16.01
2019-05-15T18:26:24.373Z,15.51
2019-05-15T18:31:28.608Z,15.48
2019-05-15T18:36:32.172Z,15.38
2019-05-15T18:41:37.642Z,15.31
2019-05-15T18:46:40.945Z,15.23
2019-05-15T18:51:44.360Z,14.84
2019-05-15T18:56:49.046Z,14.88
2019-05-15T19:01:52.441Z,14.79
2019-05-15T19:06:58.262Z,14.52
2019-05-15T19:12:01.581Z,14.55
2019-05-15T19:17:05.031Z,14.36
2019-05-15T19:22:09.135Z,14.28
2019-05-15T19:27:12.794Z,14.20
2019-05-15T19:32:17.701Z,14.14
2019-05-15T19:37:21.399Z,14.06
2019-05-15T19:42:24.461Z,14.08
2019-05-15T19:47:27.702Z,13.92
2019-05-15T19:52:30.371Z,13.82
2019-05-15T19:57:34.131Z,13.65
2019-05-15T20:02:38.298Z,13.55
2019-05-15T20:07:41.808Z,13.35
2019-05-15T20:12:47.606Z,13.40
2019-05-15T20:17:50.861Z,13.43
2019-05-15T20:22:54.134Z,13.40
2019-05-15T20:27:57.371Z,13.29
2019-05-15T20:33:00.740Z,13.29
2019-05-15T20:38:04.541Z,13.28
2019-05-15T20:43:08.423Z,13.24
2019-05-15T20:48:12.628Z,13.16
2019-05-15T20:53:17.984Z,13.15
2019-05-15T20:58:20.987Z,13.11
2019-05-15T21:03:23.561Z,13.04
2019-05-15T21:08:28.730Z,12.95
2019-05-15T21:13:32.268Z,12.85
2019-05-15T21:18:34.802Z,12.79
2019-05-15T21:23:38.651Z,12.81
2019-05-15T21:28:42.829Z,12.47
2019-05-15T21:33:48.166Z,12.52
2019-05-15T21:38:49.988Z,12.63
2019-05-15T21:43:53.274Z,12.64
2019-05-15T21:48:57.701Z,12.49
2019-05-15T21:54:01.933Z,12.52
2019-05-15T21:59:07.622Z,12.43
2019-05-15T22:04:10.791Z,12.39
2019-05-15T22:09:18.342Z,12.38
2019-05-15T22:14:21.417Z,12.37
2019-05-15T22:19:24.820Z,12.37
2019-05-15T22:24:28.535Z,12.32
2019-05-15T22:29:31.279Z,12.31
2019-05-15T22:34:34.539Z,12.34
2019-05-15T22:39:38.566Z,12.39
2019-05-15T22:44:41.188Z,12.42
2019-05-15T22:49:44.727Z,12.23
2019-05-15T22:54:47.996Z,12.28
2019-05-15T22:59:52.578Z,12.39
2019-05-15T23:04:55.636Z,12.23
2019-05-15T23:09:58.888Z,12.21
2019-05-15T23:15:02.674Z,12.06
2019-05-15T23:20:08.677Z,11.89
2019-05-15T23:25:12.260Z,12.09
2019-05-15T23:30:18.455Z,12.00
2019-05-15T23:35:34.368Z,12.07
2019-05-15T23:40:25.921Z,12.05
2019-05-15T23:45:29.007Z,12.04
2019-05-15T23:50:32.693Z,12.11
2019-05-15T23:55:36.988Z,12.00
